WEATHER DATA

TODAY
Time Temp. Dewp. Hum. Wind dir Wind speed Wind gust Bar. 1h Prec. 24h Prec.
00:19 17.8 16.3 91 0 0 1010.7 0.0000 0.0000
00:29 17.8 16.5 92 0 0 1010.6 0.0000 0.0000
00:39 17.7 16.4 92 0 0 1010.7 0.1010 0.1000
00:49 17.6 16.3 92 0 0 1010.7 0.2020 0.2000
00:56 17.5 16.2 92 0 0 1010.7 0.3030 0.3000
01:07 17.5 16.2 92 0 0 1010.6 0.5050 0.5000
01:16 17.4 16.1 92 0 0 1010.6 0.8080 0.8000
01:26 17.4 16.1 92 0 0 1010.5 0.9090 0.9000
01:37 17.4 16.1 92 0 0 1010.2 0.9090 1.0000
01:47 17.4 16.1 92 0 0 1010.1 0.8080 1.0000
01:56 17.4 16.1 92 0 0 1010 0.7070 1.0000
02:06 17.3 16 92 0 0 1009.9 0.5050 1.0000
02:17 17.3 16 92 0 0 1009.9 0.2020 1.0000
02:27 17.4 16.1 92 0 0 1009.9 0.1010 1.0000
02:36 17.4 16.1 92 0 0 1009.7 0.1010 1.1000
02:47 17.4 16.1 92 0 0 1009.6 0.1010 1.1000
02:57 17.3 16 92 0 0 1009.6 0.1010 1.1000
03:07 17.3 16 92 0 0 1009.1 0.1010 1.1000
03:17 17.2 15.9 92 0 0 1008.8 0.1010 1.1000
03:27 17.1 15.8 92 0 0 1008.8 0.1010 1.1000
03:37 17.1 16 93 0 0 1008.6 0.0000 1.1000
03:47 17.1 16 93 0 0 1008.5 0.0000 1.1000
03:58 17.1 16 93 0 0 1008.4 0.0000 1.1000
04:08 17.1 16 93 0 0 1008.3 0.0000 1.1000
04:17 17.1 16 93 0 0 1008.3 0.0000 1.1000
04:27 17.1 16 93 0 0 1008.5 0.0000 1.1000
04:38 17.2 16.1 93 0 0 1008.2 0.0000 1.1000
04:48 17.2 16.1 93 0 0 1008 0.0000 1.1000
04:58 17.3 16.2 93 0 0 1008.1 0.0000 1.1000
05:08 17.3 16.2 93 0 0 1008 0.0000 1.1000
05:18 17.4 16.3 93 0 0 1008.1 0.0000 1.1000
05:28 17.5 16.4 93 0 0 1008.1 0.0000 1.1000
05:38 17.5 16.4 93 0 0 1008.1 0.0000 1.1000
05:48 17.6 16.5 93 0 0 1008.1 0.0000 1.1000
05:58 17.6 16.3 92 0 0 1008.1 0.0000 1.1000
06:08 17.7 16.4 92 0 0 1008.1 0.0000 1.1000
06:18 17.7 16.6 93 0 0 1008 0.0000 1.1000
06:29 17.8 16.7 93 0 0 1008.2 0.0000 1.1000
06:38 17.7 16.6 93 0 0 1008.2 0.0000 1.1000
06:48 17.7 16.6 93 0 0 1008.2 0.0000 1.1000
06:59 17.7 16.6 93 0 0 1008.4 0.0000 1.1000
07:09 17.8 16.5 92 0 0 1008.4 0.0000 1.1000
07:19 17.8 16.5 92 0 0 1008.5 0.0000 1.1000
07:29 18 16.7 92 0 0 1008.7 0.0000 1.1000
07:39 18.1 16.8 92 0 0 1008.4 0.0000 1.1000
07:49 18.3 17 92 0 0 1008.7 0.0000 1.1000
07:59 18.5 17.2 92 0 0 1008.5 0.0000 1.1000
08:09 18.6 17.3 92 0 0 1008.6 0.0000 1.1000
08:19 18.7 17.4 92 0 0 1008.7 0.0000 1.1000
08:29 18.9 17.6 92 0 0 1008.6 0.0000 1.1000
08:39 19 17.7 92 0 0 1008.5 0.0000 1.1000
08:50 19.3 18 92 0 0 1008.6 0.0000 1.1000
08:59 19.6 18.3 92 0 0 1008.6 0.0000 1.1000
09:09 20 18.5 91 0 0 1008.5 0.0000 1.1000
09:20 20.3 18.8 91 0 0 1008.3 0.0000 1.1000
09:30 20.6 18.9 90 0 0 1008.3 0.0000 1.1000
09:40 20.9 19 89 0 0 1008.6 0.0000 1.1000
10:00 21.1 19 88 0 0 1008.2 0.0000 1.1000
10:10 21.4 19.3 88 0 0 1008.2 0.0000 1.1000
10:20 21.8 19.4 86 0 0 1007.9 0.0000 1.1000
10:30 22 19.6 86 0 0 1007.9 0.0000 1.1000
10:40 22.3 19.7 85 0 0 1007.9 0.0000 1.1000
10:50 22.7 19.7 83 0 0 1007.7 0.0000 1.1000
11:00 23.2 20 82 0 0 1007.8 0.0000 1.1000
11:10 23.6 19.9 80 0 0 1007.7 0.0000 1.1000
11:20 24.1 19.8 77 0 0 1007.6 0.0000 1.1000
11:30 24.4 19.9 76 0 0 1007.8 0.0000 1.1000
11:41 24.6 19.9 75 0 0 1007.7 0.0000 1.1000
11:50 24.8 20.1 75 0 0 1007.8 0.0000 1.1000
12:00 25.1 20.1 74 0 0 1007.6 0.0000 1.1000
12:11 25.5 20.3 73 0 0 1007.4 0.0000 1.1000
12:20 25.8 20.1 71 0 0 1007.5 0.0000 1.1000
12:30 26.2 20.3 70 0 0 1007.4 0.0000 1.1000
12:40 26.5 20.1 68 0 0 1007.3 0.0000 1.1000
12:51 26.7 20.5 69 0 0 1007.4 0.0000 1.1000
13:00 27.1 20.4 67 0 0 1007.3 0.0000 1.1000
13:10 27.4 20.2 65 0 0 1007.5 0.0000 1.1000
13:21 27.6 20.4 65 0 0 1007.4 0.0000 1.1000
13:31 27.8 20.6 65 0 0 1007.1 0.0000 1.1000
13:40 28 20.3 63 0 0 1007.1 0.0000 1.1000
13:50 28.3 20.3 62 0 0 1007.3 0.0000 1.1000
14:01 28.6 20.6 62 0 0 1007.1 0.0000 1.1000
14:11 29 20.2 59 0 0 1007.2 0.0000 1.1000
14:20 29 19.9 58 0 0 1007.2 0.0000 1.1000
14:31 29.3 19.6 56 0 0 1007.4 0.0000 1.1000
14:41 28.9 19.2 56 0 0 1007.4 0.0000 1.1000
14:50 28.7 19.9 59 0 0 1007.5 0.0000 1.1000
15:01 28.7 20.2 60 0 0 1007.5 0.0000 1.1000
15:11 28.7 20.2 60 0 0 1007.5 0.0000 1.1000
15:21 28.4 19.6 59 0 0 1007.7 0.0000 1.1000
15:30 28.2 19.4 59 0 0 1007.5 0.0000 1.1000
15:41 28.3 20.1 61 0 0 1007.6 0.0000 1.1000
15:51 28.3 19.8 60 0 0 1007.4 0.0000 1.1000
16:00 28.5 20.2 61 0 0 1007.4 0.0000 1.1000
16:11 28.9 19.8 58 0 0 1007.4 0.0000 1.1000
16:23 29.2 20.4 59 0 0 1007.5 0.0000 1.1000
16:32 29.2 20.1 58 0 0 1007.3 0.0000 1.1000
16:42 28.9 19.8 58 0 0 1007.4 0.0000 1.1000

DAY STATISTIC

2019-08-18
TEMPERATURE
AVERAGE
21.5
HIGH
29.3
14:31
LOW
17.1
03:27
PRESSURE
AVERAGE
1008.3
HIGH
1010.7
00:19
LOW
1007.1
13:31
DEWPOINT
AVERAGE
18.0
HIGH
20.6
13:31
LOW
15.8
03:27
HUMIDITY
AVERAGE
82
HIGH
93
03:37
LOW
56
14:31
WIND SPEED
AVERAGE
0.0
HIGH
0.0
14:55
WIND GUST
AVERAGE
0.0
HIGH
0.0
14:55
WIND DIRECTION
PREVAILING
%
PRECIPITATION
RAIN HOUR
0.9
RAIN DAY
1.1
TEMPERATURE (°C)
LOW
17.1
HIGH
29.3
AVERAGE
21.5
PRESSURE (hpa)
LOW
1007.1
HIGH
1010.7
AVERAGE
1008.3
DEVICE